Latest Weather Observations for Dum In Mirrie

IDD60901

Issued at 5:11 pm CST Tuesday 17 October 2017 (issued every 10 minutes, with the page automatically refreshed every 10 minutes)

About weather observations | Map of Darwin area stations | Latest observations for Darwin area | Other Formats
Station Details ID: 014277 Name: DUM IN MIRRIE AIRSTRIP Lat: -12.63 Lon: 130.37 Height: 3.5 m
Data from the previous 72 hours. | See also: Recent months at Dum In Mirrie
Date/Time
CST
Temp
°C
App
Temp
°C
Dew
Point
°C
Rel
Hum
%
Delta-T
°C
Wind Press
QNH
hPa
Press
MSL
hPa
Rain since
9am
mm
Dir  Spd
km/h
Gust
km/h
Spd
kts
Gust
kts
17/05:00pm 31.8 36.4 25.4 69 4.5 WNW 11 20 6 11 1004.6 1004.6 0.0
17/04:30pm 31.8 36.4 25.4 69 4.5 WNW 11 20 6 11 1004.3 1004.3 0.0
17/04:00pm 32.0 37.1 25.6 69 4.5 WNW 9 19 5 10 1004.4 1004.4 0.0
17/03:30pm 32.4 37.1 25.5 67 4.9 WNW 11 20 6 11 1004.5 1004.5 0.0
17/03:00pm 32.4 37.2 25.7 68 4.8 WNW 11 22 6 12 1004.7 1004.7 0.0
17/02:30pm 32.4 37.1 25.5 67 4.9 W 11 20 6 11 1004.9 1004.9 0.0
17/02:00pm 32.9 37.8 25.9 66 5.0 W 11 20 6 11 1005.3 1005.3 0.0
17/01:30pm 32.7 37.0 25.5 66 5.1 W 13 20 7 11 1006.0 1006.0 0.0
17/01:00pm 33.0 38.3 25.8 66 5.1 WNW 9 17 5 9 1006.6 1006.6 0.0
17/12:30pm 32.9 37.6 24.9 63 5.7 W 9 17 5 9 1007.2 1007.2 0.0
17/12:00pm 32.7 37.6 25.8 67 4.9 W 11 20 6 11 1007.3 1007.3 0.0
17/11:30am 32.0 35.8 25.3 67 4.8 W 15 22 8 12 1007.8 1007.8 0.0
17/11:00am 31.9 36.7 26.2 72 4.1 WSW 13 19 7 10 1008.4 1008.4 0.0
17/10:30am 32.1 36.9 25.7 69 4.6 W 11 19 6 10 1008.8 1008.8 0.0
17/10:00am 32.4 37.8 25.5 67 4.9 W 7 13 4 7 1009.1 1009.1 0.0
17/09:30am 32.2 37.5 25.0 65 5.1 W 6 11 3 6 1009.0 1009.0 0.0
17/09:00am 31.7 37.1 25.5 69 4.4 W 7 13 4 7 1008.7 1008.7 0.0
17/08:30am 30.6 35.6 25.4 74 3.7 W 9 17 5 9 1008.3 1008.3 0.0
17/08:00am 30.6 36.2 25.7 75 3.5 WNW 7 13 4 7 1007.8 1007.8 0.0
17/07:30am 29.6 34.7 25.6 79 2.8 W 9 17 5 9 1007.3 1007.3 0.0
17/07:00am 29.5 34.6 25.5 79 2.8 W 9 17 5 9 1007.0 1007.0 0.0
17/06:30am 29.2 34.5 25.2 79 2.8 WNW 7 15 4 8 1006.6 1006.6 0.0
17/06:00am 29.3 34.5 25.7 81 2.6 WNW 9 17 5 9 1006.4 1006.4 0.0
17/05:30am 29.1 34.4 25.3 80 2.7 WNW 7 15 4 8 1006.1 1006.1 0.0
17/05:00am 29.2 34.1 25.2 79 2.8 WNW 9 19 5 10 1005.8 1005.8 0.0
17/04:30am 29.3 34.2 25.3 79 2.8 W 9 19 5 10 1005.5 1005.5 0.0
17/04:00am 29.4 33.8 25.6 80 2.7 W 13 24 7 13 1005.3 1005.3 0.0
17/03:30am 29.4 34.0 25.4 79 2.8 W 11 20 6 11 1005.2 1005.2 0.0
17/03:00am 29.4 34.2 26.2 83 2.3 WNW 13 22 7 12 1005.2 1005.2 0.0
17/02:30am 29.3 34.1 25.7 81 2.6 WNW 11 22 6 12 1005.4 1005.4 0.0
17/02:00am 29.4 34.7 25.8 81 2.6 WNW 9 17 5 9 1005.7 1005.7 0.0
17/01:30am 29.3 34.5 25.7 81 2.6 NW 9 19 5 10 1005.8 1005.8 0.0
17/01:00am 29.4 34.5 25.6 80 2.7 WNW 9 17 5 9 1005.9 1005.9 0.0
17/12:30am 29.4 34.5 25.6 80 2.7 WNW 9 19 5 10 1006.1 1006.1 0.0
17/12:00am 29.3 34.4 25.5 80 2.7 WNW 9 17 5 9 1006.1 1006.1 0.0
 
Date/Time
CST
Temp
°C
App
Temp
°C
Dew
Point
°C
Rel
Hum
%
Delta-T
°C
Wind Press
QNH
hPa
Press
MSL
hPa
Rain since
9am
mm
Dir  Spd
km/h
Gust
km/h
Spd
kts
Gust
kts
16/11:30pm 29.4 34.7 25.8 81 2.6 NW 9 17 5 9 1006.2 1006.2 0.0
16/11:00pm 29.5 34.7 25.7 80 2.7 WNW 9 17 5 9 1006.2 1006.2 0.0
16/10:30pm 29.5 34.7 25.7 80 2.7 NW 9 19 5 10 1006.5 1006.5 0.0
16/10:00pm 29.6 34.5 25.8 80 2.7 WNW 11 19 6 10 1006.3 1006.3 0.0
16/09:30pm 29.6 35.2 25.8 80 2.7 WNW 7 13 4 7 1006.4 1006.4 0.0
16/09:00pm 29.6 35.1 25.6 79 2.8 WNW 7 13 4 7 1006.3 1006.3 0.0
16/08:30pm 29.6 35.5 25.4 78 3.0 NW 4 7 2 4 1006.5 1006.5 0.0
16/08:00pm 29.8 35.6 25.8 79 2.8 NW 6 13 3 7 1006.3 1006.3 0.0
16/07:30pm 29.8 35.4 25.8 79 2.8 WNW 7 15 4 8 1005.6 1005.6 0.0
16/07:00pm 29.9 35.4 25.6 78 3.0 W 7 15 4 8 1005.2 1005.2 0.0
16/06:30pm 30.2 35.4 25.7 77 3.2 WNW 9 17 5 9 1004.6 1004.6 0.0
16/06:00pm 31.0 35.6 25.4 72 4.0 W 11 20 6 11 1004.4 1004.4 0.0
16/05:30pm 31.3 35.4 25.2 70 4.3 WNW 13 20 7 11 1004.3 1004.3 0.0
16/05:00pm 31.8 36.9 26.1 72 4.1 W 11 20 6 11 1004.2 1004.2 0.0
16/04:30pm 32.1 36.7 25.9 70 4.4 W 13 20 7 11 1004.3 1004.3 0.0
16/04:00pm 32.0 36.6 25.3 67 4.7 W 11 24 6 13 1004.2 1004.2 0.0
16/03:30pm 32.9 37.7 25.7 66 5.1 W 11 20 6 11 1004.3 1004.3 0.0
16/03:00pm 32.6 37.3 24.9 64 5.4 WNW 9 19 5 10 1004.7 1004.7 0.0
16/02:30pm 32.5 36.9 24.5 62 5.6 WNW 9 17 5 9 1004.8 1004.8 0.0
16/02:00pm 32.6 37.9 25.2 65 5.2 NW 7 13 4 7 1005.2 1005.2 0.0
16/01:30pm 32.1 37.0 25.2 67 4.9 WNW 9 17 5 9 1005.8 1005.8 0.0
16/01:00pm 32.2 37.3 25.5 67 4.8 NW 9 15 5 8 1006.1 1006.1 0.0
16/12:30pm 32.6 37.8 25.7 67 4.9 WNW 9 15 5 8 1006.6 1006.6 0.0
16/12:00pm 32.0 36.9 25.3 67 4.8 WNW 9 13 5 7 1007.0 1007.0 0.0
16/11:30am 32.0 37.3 25.3 67 4.8 WSW 7 11 4 6 1007.4 1007.4 0.0
16/11:00am 31.6 37.0 25.5 70 4.3 WSW 7 11 4 6 1007.8 1007.8 0.0
16/10:30am 31.7 36.6 25.3 69 4.5 W 9 13 5 7 1008.2 1008.2 0.0
16/10:00am 31.4 36.2 24.5 67 4.8 WSW 7 11 4 6 1008.5 1008.5 0.0
16/09:30am 32.0 37.7 25.6 69 4.6 WSW 6 9 3 5 1008.6 1008.6 0.0
16/09:00am 30.9 36.1 24.8 70 4.3 WSW 6 9 3 5 1008.7 1008.7 0.0
16/08:30am 30.5 36.0 25.3 74 3.7 WSW 6 9 3 5 1008.8 1008.8 0.0
16/08:00am 29.8 36.4 25.8 79 2.8 E 2 6 1 3 1008.7 1008.7 0.0
16/07:30am 29.3 35.6 25.3 79 2.8 SSE 2 6 1 3 1008.4 1008.4 0.0
16/07:00am 29.3 35.6 25.3 79 2.8 SW 2 6 1 3 1008.4 1008.4 0.0
16/06:30am 29.4 35.2 25.2 78 3.0 SW 4 7 2 4 1008.2 1008.2 0.0
16/06:00am 29.4 32.9 24.9 77 3.2 W 15 22 8 12 1007.4 1007.4 0.0
16/05:30am 28.9 35.0 25.1 80 2.7 SSW 2 7 1 4 1007.5 1007.5 0.0
16/05:00am 29.2 34.1 24.7 77 3.1 SW 7 13 4 7 1007.4 1007.4 0.0
16/04:30am 29.3 34.5 25.7 81 2.6 WSW 9 17 5 9 1007.0 1007.0 0.0
16/04:00am 29.2 33.4 24.7 77 3.1 W 11 20 6 11 1006.9 1006.9 0.0
16/03:30am 29.1 33.4 25.5 81 2.5 W 13 22 7 12 1006.5 1006.5 0.0
16/03:00am 29.2 33.0 24.7 77 3.2 WNW 13 22 7 12 1006.4 1006.4 0.0
16/02:30am 29.0 33.9 25.2 80 2.7 WNW 9 20 5 11 1006.5 1006.5 0.0
16/02:00am 29.0 33.7 25.0 79 2.8 WNW 9 17 5 9 1006.9 1006.9 0.0
16/01:30am 29.0 34.6 25.8 83 2.3 NW 7 17 4 9 1007.1 1007.1 0.0
16/01:00am 28.9 34.7 25.7 83 2.3 NNW 6 9 3 5 1007.7 1007.7 0.0
16/12:30am 29.0 34.2 24.8 78 2.9 WNW 6 11 3 6 1008.0 1008.0 0.0
16/12:00am 28.7 33.7 24.5 78 2.9 NW 6 9 3 5 1008.1 1008.1 0.0
 
Date/Time
CST
Temp
°C
App
Temp
°C
Dew
Point
°C
Rel
Hum
%
Delta-T
°C
Wind Press
QNH
hPa
Press
MSL
hPa
Rain since
9am
mm
Dir  Spd
km/h
Gust
km/h
Spd
kts
Gust
kts
15/11:30pm 28.1 34.4 24.7 82 2.4 CALM 0 2 0 1 1008.6 1008.6 0.0
15/11:00pm 28.6 33.7 24.6 79 2.8 NW 6 9 3 5 1008.0 1008.0 0.0
15/10:30pm 28.7 34.2 24.7 79 2.8 NNW 4 6 2 3 1008.2 1008.2 0.0
15/10:00pm 28.6 34.2 24.8 80 2.7 NW 4 9 2 5 1007.9 1007.9 0.0
15/09:30pm 29.0 35.0 24.8 78 2.9 WNW 2 6 1 3 1007.9 1007.9 0.0
15/09:00pm 29.3 34.5 24.8 77 3.2 WNW 6 11 3 6 1007.2 1007.2 0.0
15/08:30pm 29.4 34.1 24.3 74 3.6 W 7 15 4 8 1007.0 1007.0 0.0
15/08:00pm 29.4 34.1 24.3 74 3.5 WNW 7 13 4 7 1006.4 1006.4 0.0
15/07:30pm 29.6 34.4 24.5 74 3.6 W 7 11 4 6 1006.0 1006.0 0.0
15/07:00pm 29.5 34.0 23.9 72 3.9 WNW 7 15 4 8 1005.4 1005.4 0.0
15/06:30pm 29.7 34.6 24.6 74 3.6 W 7 15 4 8 1004.9 1004.9 0.0
15/06:00pm 30.0 34.9 24.6 73 3.8 WNW 7 13 4 7 1005.0 1005.0 0.0
15/05:30pm 30.1 35.2 24.9 73 3.7 WNW 7 15 4 8 1004.8 1004.8 0.0
15/05:00pm 30.6 34.7 23.3 65 5.0 WNW 7 15 4 8 1004.6 1004.6 0.0
15/04:30pm 31.5 36.0 23.9 64 5.3 W 7 17 4 9 1004.8 1004.8 0.0
15/04:00pm 30.7 34.6 23.6 66 4.9 W 9 17 5 9 1005.1 1005.1 0.0
15/03:30pm 31.5 35.4 23.6 63 5.5 W 9 15 5 8 1005.4 1005.4 0.0
15/03:00pm 31.7 35.7 23.8 63 5.5 W 9 15 5 8 1005.4 1005.4 0.0
15/02:30pm 32.0 35.7 23.3 60 6.0 W 9 15 5 8 1005.6 1005.6 0.0
15/02:00pm 31.6 35.7 24.0 64 5.3 WSW 9 11 5 6 1006.2 1006.2 0.0
15/01:30pm 31.0 35.3 23.6 64 5.1 W 7 11 4 6 1006.5 1006.5 0.0
15/01:00pm 31.5 35.7 24.1 65 5.2 W 9 13 5 7 1007.0 1007.0 0.0
15/12:30pm 31.3 35.6 24.2 66 5.0 W 9 13 5 7 1007.4 1007.4 0.0
15/12:00pm 31.2 36.1 24.6 68 4.6 WSW 7 13 4 7 1007.8 1007.8 0.0
15/11:30am 30.9 35.8 24.3 68 4.6 WSW 6 9 3 5 1008.2 1008.2 0.0
15/11:00am 30.8 35.7 24.4 68 4.5 W 6 9 3 5 1008.4 1008.4 0.0
15/10:30am 30.6 35.6 23.8 67 4.7 W 4 9 2 5 1008.7 1008.7 0.0
15/10:00am 30.6 35.5 24.3 69 4.4 W 6 9 3 5 1008.8 1008.8 0.0
15/09:30am 29.3 36.1 25.5 80 2.7 CALM 0 0 0 0 1008.8 1008.8 0.0
15/09:00am 28.0 34.7 25.4 86 1.8 CALM 0 0 0 0 1008.5 1008.5 0.0
15/08:30am 26.8 33.8 25.9 95 0.6 CALM 0 0 0 0 1008.0 1008.0 0.0
15/08:00am 25.9 32.2 25.4 97 0.3 ESE 2 2 1 1 1007.8 1007.8 0.0
15/07:30am 25.1 31.0 24.1 94 0.7 CALM 0 2 0 1 1007.1 1007.1 0.0
15/07:00am 24.9 29.2 23.3 91 1.1 NNE 6 7 3 4 1007.0 1007.0 0.0
15/06:30am 24.3 29.4 24.0 98 0.2 N 4 4 2 2 1007.0 1007.0 0.0
15/06:00am 24.2 29.5 23.7 97 0.3 N 2 4 1 2 1007.0 1007.0 0.0
15/05:30am 23.8 28.1 23.3 97 0.3 NNW 6 9 3 5 1006.7 1006.7 0.0
15/05:00am 24.2 29.2 23.9 98 0.2 N 4 6 2 3 1006.8 1006.8 0.0
15/04:30am 24.3 29.4 24.0 98 0.2 S 4 11 2 6 1006.0 1006.0 0.0
15/04:00am 24.4 29.5 24.1 98 0.2 ENE 4 6 2 3 1006.5 1006.5 0.0
15/03:30am 23.6 26.0 22.9 96 0.5 NE 15 22 8 12 1007.0 1007.0 0.0
15/03:00am 24.2 28.9 24.0 99 0.1 ENE 6 11 3 6 1007.5 1007.5 0.0
15/02:30am 23.7 27.1 23.4 98 0.2 SSE 11 24 6 13 1007.4 1007.4 0.0
15/02:00am 24.1 26.7 22.7 92 0.9 SE 13 22 7 12 1007.7 1007.7 0.0
15/01:30am 26.7 33.5 26.2 97 0.4 NNE 2 6 1 3 1007.4 1007.4 0.0
15/01:00am 25.7 29.9 24.7 94 0.7 WNW 11 20 6 11 1006.9 1006.9 0.0
15/12:30am 26.9 33.4 26.2 96 0.5 W 4 7 2 4 1007.8 1007.8 0.0
15/12:00am 27.8 34.0 25.8 89 1.4 NNW 4 7 2 4 1007.8 1007.8 0.0
 
Date/Time
CST
Temp
°C
App
Temp
°C
Dew
Point
°C
Rel
Hum
%
Delta-T
°C
Wind Press
QNH
hPa
Press
MSL
hPa
Rain since
9am
mm
Dir  Spd
km/h
Gust
km/h
Spd
kts
Gust
kts
14/11:30pm 28.2 33.5 25.8 87 1.7 NW 9 19 5 10 1007.4 1007.4 0.0
14/11:00pm 28.9 34.2 25.9 84 2.1 NNW 9 20 5 11 1007.6 1007.6 0.0
14/10:30pm 29.7 35.7 26.1 81 2.6 WNW 6 11 3 6 1007.8 1007.8 0.0
14/10:00pm 29.7 35.3 25.4 78 3.0 WNW 6 9 3 5 1007.7 1007.7 0.0
14/09:30pm 29.8 35.4 25.5 78 3.0 NW 6 11 3 6 1007.4 1007.4 0.0
14/09:00pm 29.9 35.5 25.4 77 3.2 WNW 6 9 3 5 1006.9 1006.9 0.0
14/08:30pm 29.8 35.3 25.3 77 3.2 NW 6 9 3 5 1006.6 1006.6 0.0
14/08:00pm 29.7 35.1 25.2 77 3.2 WNW 6 11 3 6 1006.1 1006.1 0.0
14/07:30pm 29.9 35.3 25.4 77 3.2 W 7 13 4 7 1005.8 1005.8 0.0
14/07:00pm 29.9 35.5 25.4 77 3.2 W 6 15 3 8 1005.6 1005.6 0.0
14/06:30pm 30.1 35.6 25.6 77 3.2 WNW 7 15 4 8 1005.1 1005.1 0.0
14/06:00pm 30.9 36.2 25.9 74 3.6 WNW 9 15 5 8 1005.0 1005.0 0.0
14/05:30pm 31.6 37.0 25.5 70 4.3 WNW 7 13 4 7 1004.9 1004.9 0.0

Latest Capital City Observations: Canberra | Sydney | Melbourne | Brisbane | Adelaide | Perth | Hobart | Darwin

Other Formats:

Comma delimited format used in spreadsheet applications
http://www.bom.gov.au/fwo/IDD60901/IDD60901.94116.axf

JavaScript Object Notation format (JSON) in row-major order
http://www.bom.gov.au/fwo/IDD60901/IDD60901.94116.json